createdAt,value
2023-08-21T00:00:29.027Z,19.60
2023-08-21T00:02:57.004Z,19.50
2023-08-21T00:05:24.930Z,19.50
2023-08-21T00:07:52.781Z,19.50
2023-08-21T00:10:20.626Z,19.50
2023-08-21T00:12:48.481Z,19.40
2023-08-21T00:15:16.316Z,19.40
2023-08-21T00:17:45.577Z,19.30
2023-08-21T00:20:13.854Z,19.30
2023-08-21T00:22:41.730Z,19.30
2023-08-21T00:25:10.003Z,19.30
2023-08-21T00:27:37.842Z,19.20
2023-08-21T00:30:06.415Z,19.20
2023-08-21T00:32:34.322Z,19.20
2023-08-21T00:35:03.660Z,19.20
2023-08-21T00:37:31.513Z,19.20
2023-08-21T00:39:59.349Z,19.20
2023-08-21T00:42:27.270Z,19.10
2023-08-21T00:44:55.137Z,19.10
2023-08-21T00:47:23.031Z,19.00
2023-08-21T00:49:51.066Z,18.90
2023-08-21T00:52:20.332Z,18.90
2023-08-21T00:54:48.224Z,18.80
2023-08-21T00:57:16.650Z,18.80
2023-08-21T00:59:44.806Z,18.80
2023-08-21T01:02:12.779Z,18.80
2023-08-21T01:04:40.916Z,18.80
2023-08-21T01:07:10.864Z,18.80
2023-08-21T01:09:47.415Z,18.70
2023-08-21T01:12:29.331Z,18.70
2023-08-21T01:15:01.792Z,18.70
2023-08-21T01:17:31.517Z,18.60
2023-08-21T01:20:00.680Z,18.60
2023-08-21T01:22:29.284Z,18.60
2023-08-21T01:24:58.522Z,18.50
2023-08-21T01:27:26.411Z,18.50
2023-08-21T01:29:54.531Z,18.50
2023-08-21T01:32:29.813Z,18.40
2023-08-21T01:35:00.320Z,18.40
2023-08-21T01:37:28.653Z,18.40
2023-08-21T01:39:59.823Z,18.30
2023-08-21T01:42:27.781Z,18.30
2023-08-21T01:44:56.055Z,18.30
2023-08-21T01:47:23.959Z,18.30
2023-08-21T01:49:53.271Z,18.20
2023-08-21T01:52:21.158Z,18.20
2023-08-21T01:54:51.457Z,18.20
2023-08-21T01:57:21.236Z,18.20
2023-08-21T01:59:49.116Z,18.20
2023-08-21T02:02:17.097Z,18.20
2023-08-21T02:04:45.059Z,18.20
2023-08-21T02:07:12.962Z,18.10
2023-08-21T02:09:40.888Z,18.00
2023-08-21T02:12:09.420Z,18.00
2023-08-21T02:14:38.626Z,18.00
2023-08-21T02:17:06.810Z,18.00
2023-08-21T02:19:34.687Z,18.00
2023-08-21T02:22:02.516Z,18.00
2023-08-21T02:24:30.452Z,17.90
2023-08-21T02:26:58.286Z,17.90
2023-08-21T02:29:26.166Z,17.90
2023-08-21T02:31:55.377Z,17.90
2023-08-21T02:34:23.267Z,17.90
2023-08-21T02:36:51.123Z,17.90
2023-08-21T02:39:19.035Z,17.90
2023-08-21T02:41:47.119Z,17.80
2023-08-21T02:44:15.032Z,17.80
2023-08-21T02:46:43.179Z,17.80
2023-08-21T02:49:12.426Z,17.80
2023-08-21T02:51:40.421Z,17.80
2023-08-21T02:54:08.502Z,17.80
2023-08-21T02:56:36.552Z,17.70
2023-08-21T02:59:04.593Z,17.70
2023-08-21T03:01:32.497Z,17.60
2023-08-21T03:04:00.385Z,17.50
2023-08-21T03:06:29.628Z,17.40
2023-08-21T03:08:57.496Z,17.50
2023-08-21T03:11:25.595Z,17.40
2023-08-21T03:13:53.500Z,17.40
2023-08-21T03:16:21.464Z,17.40
2023-08-21T03:18:59.624Z,17.40
2023-08-21T03:21:29.419Z,17.40
2023-08-21T03:23:58.337Z,17.40
2023-08-21T03:26:26.589Z,17.40
2023-08-21T03:28:54.443Z,17.40
2023-08-21T03:31:22.389Z,17.30
2023-08-21T03:33:50.336Z,17.30
2023-08-21T03:36:18.217Z,17.30
2023-08-21T03:38:47.701Z,17.30
2023-08-21T03:41:15.572Z,17.30
2023-08-21T03:43:43.457Z,17.40
2023-08-21T03:46:11.310Z,17.40
2023-08-21T03:48:39.222Z,17.40
2023-08-21T03:51:07.123Z,17.40
2023-08-21T03:53:35.097Z,17.40
2023-08-21T03:56:04.620Z,17.40
2023-08-21T03:58:32.512Z,17.40
2023-08-21T04:01:00.392Z,17.40
2023-08-21T04:03:28.354Z,17.30
2023-08-21T04:05:57.414Z,17.30
2023-08-21T04:08:25.547Z,17.30
2023-08-21T04:10:54.427Z,17.30
2023-08-21T04:13:23.626Z,17.30
2023-08-21T04:15:52.123Z,17.30
2023-08-21T04:18:30.529Z,17.20
2023-08-21T04:21:02.880Z,17.20
2023-08-21T04:23:30.791Z,17.20
2023-08-21T04:26:02.964Z,17.20
2023-08-21T04:28:32.711Z,17.20
2023-08-21T04:31:00.866Z,17.20
2023-08-21T04:33:30.766Z,17.20
2023-08-21T04:35:58.834Z,17.20
2023-08-21T04:38:26.753Z,17.20
2023-08-21T04:40:54.675Z,17.20
2023-08-21T04:43:22.586Z,17.20
2023-08-21T04:45:54.030Z,17.20
2023-08-21T04:48:22.430Z,17.20
2023-08-21T04:50:50.342Z,17.30
2023-08-21T04:53:18.215Z,17.30
2023-08-21T04:55:46.143Z,17.30
2023-08-21T04:58:14.035Z,17.30
2023-08-21T05:00:42.070Z,17.30
2023-08-21T05:03:11.392Z,17.30
2023-08-21T05:05:39.303Z,17.40
2023-08-21T05:08:07.887Z,17.40
2023-08-21T05:10:35.938Z,17.40
2023-08-21T05:13:05.907Z,17.40
2023-08-21T05:15:33.845Z,17.40
2023-08-21T05:18:01.796Z,17.40
2023-08-21T05:20:31.046Z,17.40
2023-08-21T05:22:58.947Z,17.40
2023-08-21T05:25:26.899Z,17.40
2023-08-21T05:27:54.770Z,17.40
2023-08-21T05:30:22.674Z,17.50
2023-08-21T05:32:50.604Z,17.50
2023-08-21T05:35:18.636Z,17.60
2023-08-21T05:37:47.865Z,17.60
2023-08-21T05:40:16.199Z,17.70
2023-08-21T05:42:44.071Z,17.70
2023-08-21T05:45:12.079Z,17.80
2023-08-21T05:47:40.035Z,17.80
2023-08-21T05:50:08.720Z,17.80
2023-08-21T05:52:37.030Z,17.80
2023-08-21T05:55:08.332Z,17.90
2023-08-21T05:57:36.256Z,17.90
2023-08-21T06:00:04.538Z,17.90
2023-08-21T06:02:32.419Z,18.00
2023-08-21T06:05:00.818Z,18.00
2023-08-21T06:07:28.758Z,18.10
2023-08-21T06:09:56.753Z,18.20
2023-08-21T06:12:25.976Z,18.20
2023-08-21T06:14:53.854Z,18.30
2023-08-21T06:17:21.731Z,18.40
2023-08-21T06:19:49.609Z,18.50
2023-08-21T06:22:17.508Z,18.50
2023-08-21T06:24:45.432Z,18.60
2023-08-21T06:27:13.299Z,18.70
2023-08-21T06:29:42.662Z,18.80
2023-08-21T06:32:10.768Z,18.80
2023-08-21T06:34:39.169Z,18.90
2023-08-21T06:37:07.369Z,19.00
2023-08-21T06:39:36.345Z,19.10
2023-08-21T06:42:04.571Z,19.20
2023-08-21T06:44:32.502Z,19.30
2023-08-21T06:47:01.935Z,19.40
2023-08-21T06:49:29.893Z,19.50
2023-08-21T06:51:57.816Z,19.60
2023-08-21T06:54:25.793Z,19.60
2023-08-21T06:56:53.700Z,19.80
2023-08-21T06:59:21.580Z,19.80
2023-08-21T07:01:49.532Z,19.90
2023-08-21T07:04:19.082Z,20.00
2023-08-21T07:06:47.025Z,20.10
2023-08-21T07:09:14.921Z,20.30
2023-08-21T07:11:42.875Z,20.40
2023-08-21T07:14:10.734Z,20.40
2023-08-21T07:16:38.668Z,20.50
2023-08-21T07:19:06.474Z,20.60
2023-08-21T07:21:37.163Z,20.70
2023-08-21T07:24:05.104Z,20.80
2023-08-21T07:26:33.221Z,20.80
2023-08-21T07:29:01.009Z,21.00
2023-08-21T07:31:28.969Z,21.00
2023-08-21T07:33:56.876Z,21.10
2023-08-21T07:36:24.710Z,21.20
2023-08-21T07:38:53.862Z,21.40
2023-08-21T07:41:21.695Z,21.40
2023-08-21T07:43:49.502Z,21.50
2023-08-21T07:46:19.441Z,21.60
2023-08-21T07:48:47.967Z,21.70
2023-08-21T07:51:16.022Z,21.80
2023-08-21T07:53:44.033Z,21.90
2023-08-21T07:56:13.338Z,22.00
2023-08-21T07:58:41.217Z,22.10
2023-08-21T08:01:09.135Z,22.10
2023-08-21T08:03:37.066Z,22.20
2023-08-21T08:06:07.962Z,22.30
2023-08-21T08:08:35.761Z,22.50
2023-08-21T08:11:05.901Z,22.50
2023-08-21T08:13:35.145Z,22.60
2023-08-21T08:16:03.008Z,22.70
2023-08-21T08:18:30.964Z,22.80
2023-08-21T08:20:58.786Z,22.90
2023-08-21T08:23:26.561Z,23.00
2023-08-21T08:25:54.715Z,23.10
2023-08-21T08:28:22.502Z,23.20
2023-08-21T08:30:52.851Z,23.30
2023-08-21T08:33:20.782Z,23.40
2023-08-21T08:35:48.662Z,23.60
2023-08-21T08:38:16.545Z,23.70
2023-08-21T08:40:46.381Z,23.70
2023-08-21T08:43:14.434Z,23.80
2023-08-21T08:45:43.404Z,23.90
2023-08-21T08:48:14.320Z,23.90
2023-08-21T08:50:43.777Z,24.00
2023-08-21T08:53:17.061Z,24.10
2023-08-21T08:55:45.745Z,24.20
2023-08-21T08:58:13.735Z,24.20
2023-08-21T09:00:41.625Z,24.30
2023-08-21T09:03:11.184Z,24.40
2023-08-21T09:05:41.927Z,24.40
2023-08-21T09:08:14.079Z,24.50
2023-08-21T09:10:43.275Z,24.60
2023-08-21T09:13:13.901Z,24.70
2023-08-21T09:15:43.737Z,24.70
2023-08-21T09:18:12.231Z,24.70
2023-08-21T09:20:41.482Z,24.70
2023-08-21T09:23:10.038Z,24.70
2023-08-21T09:25:39.658Z,24.70
2023-08-21T09:28:08.532Z,24.80
2023-08-21T09:30:50.078Z,24.80
2023-08-21T09:33:20.882Z,24.90
2023-08-21T09:35:50.786Z,24.90
2023-08-21T09:38:19.958Z,24.90
2023-08-21T09:40:53.508Z,25.00
2023-08-21T09:43:22.617Z,25.10
2023-08-21T09:45:51.593Z,25.20
2023-08-21T09:48:20.098Z,25.30
2023-08-21T09:50:50.081Z,25.30
2023-08-21T09:53:18.251Z,25.30
2023-08-21T09:55:46.837Z,25.30
2023-08-21T09:58:15.737Z,25.40
2023-08-21T10:00:44.237Z,25.40
2023-08-21T10:03:13.177Z,25.50
2023-08-21T10:05:41.919Z,25.50
2023-08-21T10:08:11.533Z,25.50
2023-08-21T10:10:40.606Z,25.60
2023-08-21T10:13:10.427Z,25.70
2023-08-21T10:15:39.651Z,25.70
2023-08-21T10:18:24.768Z,25.70
2023-08-21T10:20:53.229Z,25.80
2023-08-21T10:23:31.537Z,25.80
2023-08-21T10:26:01.542Z,25.90
2023-08-21T10:28:51.007Z,25.90
2023-08-21T10:31:32.854Z,26.00
2023-08-21T10:34:02.155Z,26.10
2023-08-21T10:37:02.517Z,26.10
2023-08-21T10:39:32.313Z,26.10
2023-08-21T10:42:03.086Z,26.10
2023-08-21T10:44:39.087Z,26.10
2023-08-21T10:47:17.781Z,26.10
2023-08-21T10:49:47.275Z,26.10
2023-08-21T10:52:16.302Z,26.20
2023-08-21T10:54:49.912Z,26.30
2023-08-21T10:57:18.203Z,26.40
2023-08-21T10:59:53.195Z,26.50
2023-08-21T11:02:21.211Z,26.50
2023-08-21T11:04:49.023Z,26.60
2023-08-21T11:07:16.898Z,26.50
2023-08-21T11:09:44.956Z,26.50
2023-08-21T11:12:17.679Z,26.50
2023-08-21T11:14:45.675Z,26.50
2023-08-21T11:17:14.175Z,26.40
2023-08-21T11:19:43.758Z,26.40
2023-08-21T11:22:12.921Z,26.40
2023-08-21T11:24:46.158Z,26.40
2023-08-21T11:27:17.059Z,26.40
2023-08-21T11:29:45.889Z,26.40
2023-08-21T11:32:15.564Z,26.40
2023-08-21T11:34:45.249Z,26.50
2023-08-21T11:37:13.366Z,26.60
2023-08-21T11:39:43.501Z,26.70
2023-08-21T11:42:13.351Z,26.70
2023-08-21T11:44:47.863Z,26.80
2023-08-21T11:47:16.065Z,26.70
2023-08-21T11:49:45.045Z,26.80
2023-08-21T11:52:13.555Z,26.80
2023-08-21T11:54:43.317Z,26.80
2023-08-21T11:57:14.331Z,26.90
2023-08-21T11:59:42.595Z,27.00
2023-08-21T12:02:15.540Z,27.10
2023-08-21T12:04:44.530Z,27.20
2023-08-21T12:07:14.072Z,27.30
2023-08-21T12:09:42.040Z,27.40
2023-08-21T12:12:10.056Z,27.30
2023-08-21T12:14:40.483Z,27.20
2023-08-21T12:17:08.394Z,27.20
2023-08-21T12:19:37.731Z,27.30
2023-08-21T12:22:06.166Z,27.40
2023-08-21T12:24:33.957Z,27.50
2023-08-21T12:27:01.745Z,27.60
2023-08-21T12:29:29.510Z,27.70
2023-08-21T12:31:57.344Z,27.80
2023-08-21T12:34:25.168Z,27.90
2023-08-21T12:36:54.333Z,27.90
2023-08-21T12:39:23.020Z,28.00
2023-08-21T12:41:50.916Z,28.00
2023-08-21T12:44:18.758Z,28.10
2023-08-21T12:46:46.949Z,28.20
2023-08-21T12:49:14.720Z,28.10
2023-08-21T12:51:42.494Z,28.00
2023-08-21T12:54:11.641Z,28.10
2023-08-21T12:56:40.385Z,28.00
2023-08-21T12:59:08.510Z,28.00
2023-08-21T13:01:36.695Z,28.00
2023-08-21T13:04:04.968Z,28.00
2023-08-21T13:06:32.963Z,28.10
2023-08-21T13:09:01.231Z,28.20
2023-08-21T13:11:31.735Z,28.30
2023-08-21T13:13:59.513Z,28.30
2023-08-21T13:16:27.310Z,28.30
2023-08-21T13:18:55.074Z,28.40
2023-08-21T13:21:23.179Z,28.40
2023-08-21T13:23:50.970Z,28.40
2023-08-21T13:26:18.797Z,28.50
2023-08-21T13:28:48.026Z,28.50
2023-08-21T13:31:16.867Z,28.50
2023-08-21T13:33:50.236Z,28.50
2023-08-21T13:36:24.496Z,28.60
2023-08-21T13:38:52.930Z,28.60
2023-08-21T13:41:20.885Z,28.70
2023-08-21T13:43:50.951Z,28.70
2023-08-21T13:46:18.960Z,28.70
2023-08-21T13:48:46.797Z,28.70
2023-08-21T13:51:14.590Z,28.70
2023-08-21T13:53:42.609Z,28.70
2023-08-21T13:56:10.379Z,28.70
2023-08-21T13:58:38.220Z,28.70
2023-08-21T14:01:09.103Z,28.70
2023-08-21T14:03:37.008Z,28.70
2023-08-21T14:06:05.037Z,28.70
2023-08-21T14:08:33.045Z,28.70
2023-08-21T14:11:00.804Z,28.60
2023-08-21T14:13:28.585Z,28.60
2023-08-21T14:15:56.408Z,28.60
2023-08-21T14:18:25.608Z,28.60
2023-08-21T14:20:53.460Z,28.60
2023-08-21T14:23:21.316Z,28.60
2023-08-21T14:25:49.308Z,28.60
2023-08-21T14:28:17.086Z,28.60
2023-08-21T14:30:46.133Z,28.50
2023-08-21T14:33:14.003Z,28.50
2023-08-21T14:35:43.130Z,28.50
2023-08-21T14:38:11.798Z,28.50
2023-08-21T14:40:39.575Z,28.50
2023-08-21T14:43:07.343Z,28.50
2023-08-21T14:45:35.145Z,28.40
2023-08-21T14:48:03.011Z,28.30
2023-08-21T14:50:30.799Z,28.30
2023-08-21T14:52:59.890Z,28.30
2023-08-21T14:55:27.666Z,28.30
2023-08-21T14:57:55.435Z,28.30
2023-08-21T15:00:23.445Z,28.30
2023-08-21T15:02:51.236Z,28.30
2023-08-21T15:05:19.051Z,28.30
2023-08-21T15:07:46.924Z,28.30
2023-08-21T15:10:17.459Z,28.30
2023-08-21T15:12:45.321Z,28.40
2023-08-21T15:15:13.426Z,28.40
2023-08-21T15:17:41.525Z,28.40
2023-08-21T15:20:12.887Z,28.40
2023-08-21T15:22:40.667Z,28.40
2023-08-21T15:25:09.048Z,28.30
2023-08-21T15:27:38.648Z,28.20
2023-08-21T15:30:08.004Z,28.20
2023-08-21T15:32:35.959Z,28.20
2023-08-21T15:35:05.730Z,28.20
2023-08-21T15:37:33.617Z,28.20
2023-08-21T15:40:01.410Z,28.30
2023-08-21T15:42:29.179Z,28.30
2023-08-21T15:44:58.281Z,28.30
2023-08-21T15:49:56.745Z,28.30
2023-08-21T15:52:24.607Z,28.30
2023-08-21T15:54:52.636Z,28.40
2023-08-21T15:57:20.732Z,28.40
2023-08-21T15:59:48.519Z,28.40
2023-08-21T16:02:17.702Z,28.40
2023-08-21T16:04:45.868Z,28.30
2023-08-21T16:07:13.709Z,28.30
2023-08-21T16:09:41.569Z,28.20
2023-08-21T16:12:09.448Z,28.10
2023-08-21T16:14:37.247Z,28.00
2023-08-21T16:17:08.261Z,27.90
2023-08-21T16:19:38.163Z,27.80
2023-08-21T16:22:06.166Z,27.70
2023-08-21T16:24:33.964Z,27.60
2023-08-21T16:27:01.980Z,27.50
2023-08-21T16:29:29.772Z,27.40
2023-08-21T16:31:57.628Z,27.30
2023-08-21T16:34:25.520Z,27.20
2023-08-21T16:36:54.651Z,27.20
2023-08-21T16:39:22.430Z,27.10
2023-08-21T16:41:50.234Z,27.00
2023-08-21T16:44:18.297Z,27.00
2023-08-21T16:46:46.070Z,26.90
2023-08-21T16:49:13.841Z,26.80
2023-08-21T16:51:41.831Z,26.70
2023-08-21T16:54:10.969Z,26.60
2023-08-21T16:56:38.774Z,26.60
2023-08-21T16:59:06.540Z,26.50
2023-08-21T17:01:34.344Z,26.50
2023-08-21T17:04:02.248Z,26.40
2023-08-21T17:06:31.588Z,26.40
2023-08-21T17:09:00.127Z,26.30
2023-08-21T17:11:29.244Z,26.30
2023-08-21T17:13:57.023Z,26.20
2023-08-21T17:16:24.852Z,26.10
2023-08-21T17:18:52.961Z,26.10
2023-08-21T17:21:20.729Z,26.00
2023-08-21T17:23:48.495Z,25.90
2023-08-21T17:26:20.524Z,25.90
2023-08-21T17:28:49.648Z,25.80
2023-08-21T17:31:17.604Z,25.80
2023-08-21T17:33:45.496Z,25.70
2023-08-21T17:36:13.261Z,25.60
2023-08-21T17:38:41.044Z,25.60
2023-08-21T17:41:09.904Z,25.50
2023-08-21T17:43:37.712Z,25.50
2023-08-21T17:46:06.944Z,25.40
2023-08-21T17:48:34.848Z,25.30
2023-08-21T17:51:03.541Z,25.30
2023-08-21T17:53:31.326Z,25.20
2023-08-21T17:55:59.628Z,25.10
2023-08-21T17:58:27.796Z,25.10
2023-08-21T18:00:56.416Z,25.00
2023-08-21T18:03:25.590Z,24.90
2023-08-21T18:05:53.530Z,24.90
2023-08-21T18:08:21.291Z,24.80
2023-08-21T18:10:51.752Z,24.70
2023-08-21T18:13:20.149Z,24.70
2023-08-21T18:15:50.776Z,24.60
2023-08-21T18:18:18.802Z,24.60
2023-08-21T18:20:55.800Z,24.50
2023-08-21T18:23:25.978Z,24.50
2023-08-21T18:25:55.427Z,24.40
2023-08-21T18:28:24.722Z,24.40
2023-08-21T18:30:53.847Z,24.30
2023-08-21T18:33:21.941Z,24.30
2023-08-21T18:35:50.136Z,24.20
2023-08-21T18:38:19.336Z,24.10
2023-08-21T18:40:47.109Z,24.10
2023-08-21T18:43:14.925Z,24.00
2023-08-21T18:45:42.876Z,24.00
2023-08-21T18:48:10.799Z,23.90
2023-08-21T18:50:40.582Z,23.80
2023-08-21T18:53:09.454Z,23.70
2023-08-21T18:55:40.091Z,23.70
2023-08-21T18:58:08.102Z,23.60
2023-08-21T19:00:35.959Z,23.50
2023-08-21T19:03:04.374Z,23.50
2023-08-21T19:05:32.734Z,23.40
2023-08-21T19:08:00.654Z,23.40
2023-08-21T19:10:28.661Z,23.30
2023-08-21T19:12:58.188Z,23.30
2023-08-21T19:15:26.632Z,23.20
2023-08-21T19:17:54.510Z,23.20
2023-08-21T19:20:22.599Z,23.10
2023-08-21T19:22:52.647Z,23.10
2023-08-21T19:25:21.939Z,23.00
2023-08-21T19:27:50.274Z,23.00
2023-08-21T19:30:19.848Z,22.90
2023-08-21T19:32:47.661Z,22.80
2023-08-21T19:35:15.503Z,22.80
2023-08-21T19:37:43.647Z,22.70
2023-08-21T19:40:12.612Z,22.70
2023-08-21T19:42:40.476Z,22.60
2023-08-21T19:45:09.814Z,22.50
2023-08-21T19:47:39.195Z,22.40
2023-08-21T19:50:08.584Z,22.40
2023-08-21T19:52:36.459Z,22.30
2023-08-21T19:55:04.435Z,22.30
2023-08-21T19:57:32.283Z,22.20
2023-08-21T20:00:00.070Z,22.20
2023-08-21T20:02:27.978Z,22.20
2023-08-21T20:04:57.331Z,22.20
2023-08-21T20:07:25.203Z,22.10
2023-08-21T20:09:53.168Z,22.10
2023-08-21T20:12:20.974Z,22.10
2023-08-21T20:14:48.807Z,22.00
2023-08-21T20:17:16.727Z,21.90
2023-08-21T20:19:46.712Z,21.90
2023-08-21T20:22:15.889Z,21.80
2023-08-21T20:24:43.664Z,21.80
2023-08-21T20:27:11.433Z,21.80
2023-08-21T20:29:39.361Z,21.70
2023-08-21T20:32:08.276Z,21.70
2023-08-21T20:34:36.177Z,21.70
2023-08-21T20:37:04.262Z,21.70
2023-08-21T20:39:34.060Z,21.60
2023-08-21T20:42:03.692Z,21.60
2023-08-21T20:44:31.624Z,21.50
2023-08-21T20:46:59.530Z,21.50
2023-08-21T20:49:27.846Z,21.50
2023-08-21T20:51:55.670Z,21.50
2023-08-21T20:54:24.615Z,21.50
2023-08-21T20:56:53.746Z,21.50
2023-08-21T20:59:21.550Z,21.50
2023-08-21T21:01:49.359Z,21.50
2023-08-21T21:04:17.403Z,21.40
2023-08-21T21:06:45.431Z,21.40
2023-08-21T21:09:13.251Z,21.40
2023-08-21T21:11:41.084Z,21.40
2023-08-21T21:14:10.207Z,21.40
2023-08-21T21:16:40.353Z,21.40
2023-08-21T21:19:09.249Z,21.30
2023-08-21T21:21:37.027Z,21.30
2023-08-21T21:24:05.164Z,21.30
2023-08-21T21:26:32.930Z,21.20
2023-08-21T21:29:01.678Z,21.20
2023-08-21T21:31:30.845Z,21.10
2023-08-21T21:33:58.797Z,21.00
2023-08-21T21:36:26.765Z,21.00
2023-08-21T21:38:54.883Z,21.00
2023-08-21T21:41:22.993Z,20.90
2023-08-21T21:43:50.818Z,20.90
2023-08-21T21:46:26.101Z,20.80
2023-08-21T21:48:55.746Z,20.80
2023-08-21T21:51:23.636Z,20.80
2023-08-21T21:53:51.473Z,20.70
2023-08-21T21:56:19.428Z,20.70
2023-08-21T21:58:47.380Z,20.60
2023-08-21T22:01:15.343Z,20.50
2023-08-21T22:03:43.220Z,20.50
2023-08-21T22:06:13.322Z,20.50
2023-08-21T22:08:42.001Z,20.40
2023-08-21T22:11:10.638Z,20.40
2023-08-21T22:13:38.903Z,20.30
2023-08-21T22:16:06.979Z,20.30
2023-08-21T22:18:36.712Z,20.30
2023-08-21T22:21:07.303Z,20.10
2023-08-21T22:23:37.200Z,20.10
2023-08-21T22:26:05.064Z,20.10
2023-08-21T22:28:32.906Z,20.10
2023-08-21T22:31:00.988Z,20.00
2023-08-21T22:33:28.845Z,19.90
2023-08-21T22:35:56.859Z,19.90
2023-08-21T22:38:24.704Z,19.90
2023-08-21T22:40:53.883Z,19.80
2023-08-21T22:43:21.682Z,19.80
2023-08-21T22:45:49.557Z,19.90
2023-08-21T22:48:17.350Z,19.80
2023-08-21T22:50:45.125Z,19.70
2023-08-21T22:53:12.892Z,19.70
2023-08-21T22:55:40.752Z,19.60
2023-08-21T22:58:09.894Z,19.60
2023-08-21T23:00:37.991Z,19.50
2023-08-21T23:03:06.418Z,19.50
2023-08-21T23:05:34.282Z,19.40
2023-08-21T23:08:02.148Z,19.40
2023-08-21T23:10:30.032Z,19.40
2023-08-21T23:12:57.830Z,19.40
2023-08-21T23:15:26.984Z,19.30
2023-08-21T23:17:54.793Z,19.40
2023-08-21T23:20:22.653Z,19.30
2023-08-21T23:22:50.475Z,19.30
2023-08-21T23:25:18.425Z,19.20
2023-08-21T23:27:46.210Z,19.20
2023-08-21T23:30:16.007Z,19.20
2023-08-21T23:32:45.136Z,19.10
2023-08-21T23:35:13.285Z,19.10
2023-08-21T23:37:42.017Z,19.00
2023-08-21T23:40:11.149Z,19.00
2023-08-21T23:42:39.154Z,19.00
2023-08-21T23:45:08.172Z,19.00
2023-08-21T23:47:35.995Z,18.90
2023-08-21T23:50:06.442Z,19.00
2023-08-21T23:52:34.228Z,18.90
2023-08-21T23:55:02.932Z,18.90
2023-08-21T23:57:31.162Z,18.90
2023-08-21T23:59:59.228Z,18.90
